EST,Max TemperatureF,Mean TemperatureF,Min TemperatureF,Max Dew PointF,MeanDew PointF,Min DewpointF,Max Humidity, Mean Humidity, Min Humidity, Max Sea Level PressureIn, Mean Sea Level PressureIn, Min Sea Level PressureIn, Max VisibilityMiles, Mean VisibilityMiles, Min VisibilityMiles, Max Wind SpeedMPH, Mean Wind SpeedMPH, Max Gust SpeedMPH,PrecipitationIn, CloudCover, Events, WindDirDegrees
2012-10-1,86,82,77,79,77,73,89,82,72,29.92,29.85,29.80,6,6,6,12,7,24,0.00,6,Thunderstorm,165
2012-10-2,88,85,82,79,77,75,89,76,66,30.01,29.94,29.89,6,6,6,12,6,,0.51,4,,135
2012-10-3,91,86,80,79,78,77,94,77,61,30.04,30.00,29.95,6,6,6,10,6,,0.00,4,Thunderstorm,95
2012-10-4,90,86,81,79,78,76,84,77,69,30.04,29.99,29.95,6,6,6,14,8,,0.00,4,Thunderstorm,77
2012-10-5,89,84,80,79,78,75,89,78,66,29.95,29.90,29.83,6,6,6,17,9,,0.00,3,Thunderstorm,85
2012-10-6,87,82,77,79,77,77,94,85,74,29.87,29.85,29.80,6,6,6,8,4,,0.94,4,Rain-Thunderstorm,87
2012-10-7,89,82,75,79,77,75,94,80,62,29.92,29.86,29.83,6,6,6,12,6,,0.00,2,,96
2012-10-8,88,82,77,81,77,75,94,79,65,29.98,29.93,29.89,6,6,6,6,3,,0.00,3,,114
2012-10-9,90,84,78,79,77,77,94,77,66,30.01,29.96,29.89,6,6,6,12,5,,0.00,5,,101
2012-10-10,90,86,81,79,78,76,89,76,58,30.01,29.96,29.89,6,6,6,13,7,,0.00,3,,94
2012-10-11,88,82,77,79,78,75,100,82,74,30.01,29.96,29.92,6,6,6,15,10,,0.08,5,Rain-Thunderstorm,61
2012-10-12,88,84,80,77,74,70,89,72,58,29.98,29.95,29.89,6,6,6,18,15,29,0.16,3,Rain,51
2012-10-13,86,84,81,75,73,70,79,68,54,29.95,29.91,29.86,6,6,6,18,16,,0.00,3,,52
2012-10-14,87,82,77,79,77,72,89,80,70,30.06,29.88,29.83,6,6,5,13,8,,0.00,3,Rain-Thunderstorm,53
2012-10-15,88,82,76,77,76,75,94,79,66,29.86,29.81,29.77,6,6,6,10,5,,0.00,2,,347
2012-10-16,87,82,78,77,76,75,89,77,69,29.83,29.79,29.74,6,6,6,8,4,,0.00,2,,33
2012-10-17,88,82,77,79,76,75,89,75,64,29.89,29.85,29.82,6,6,6,6,3,,0.00,1,,166
2012-10-18,88,82,76,79,77,75,95,78,66,29.89,29.86,29.83,6,6,6,6,3,,0.00,2,,150
2012-10-19,89,84,78,81,78,75,94,80,72,29.89,29.85,29.80,6,6,6,8,5,,0.00,3,Thunderstorm,119
2012-10-20,88,84,80,79,79,77,94,83,68,29.89,29.85,29.80,6,6,6,10,5,,0.00,3,Tornado,92
2012-10-21,89,86,82,79,78,77,89,80,70,29.89,29.84,29.80,6,6,6,21,12,,0.20,4,,65
2012-10-22,88,84,80,79,77,75,84,77,66,29.86,29.81,29.77,6,6,6,20,17,,0.04,2,Rain,75
2012-10-23,87,80,74,79,77,75,94,86,70,29.77,29.72,29.68,6,6,6,21,13,33,0.28,5,Rain-Thunderstorm,77
2012-10-24,87,82,78,77,76,75,94,78,42,29.68,29.64,29.59,6,6,6,17,15,,0.16,4,,51
2012-10-25,87,82,77,77,75,73,89,79,72,29.68,29.63,29.59,6,6,6,16,12,,0.01,3,,341
2012-10-26,88,84,80,72,71,70,70,63,48,29.77,29.73,29.68,6,6,6,17,14,29,0.00,2,,314
2012-10-27,87,81,75,75,71,66,89,66,53,29.86,29.80,29.74,6,6,6,13,8,25,0.00,1,,323
2012-10-28,87,81,75,74,70,68,94,68,53,29.89,29.86,29.83,6,6,6,10,5,,0.00,1,,339
2012-10-29,85,81,77,73,68,64,74,65,55,29.95,29.90,29.86,6,6,6,13,9,,0.00,2,,348
2012-10-30,82,77,72,70,66,63,78,62,51,30.01,29.96,29.92,6,6,6,12,8,,0.00,4,,6
2012-10-31,83,78,73,79,68,64,89,66,58,30.04,30.00,29.95,6,6,6,15,10,,0.00,2,,49